Time;durP1;ratioP1;P1;durP2;ratioP2;P2;SDS_P1;SDS_P2;PMS_P1;PMS_P2;Temp;Humidity;BMP_temperature;BMP_pressure;BME280_temperature;BME280_humidity;BME280_pressure;Samples;Min_cycle;Max_cycle;Signal;HPM_P1;HPM_P2
2024/01/22 00:01:30;;;;;;;1.17;1.17;;;;;;;-1.59;100.00;102315.00;4996983;28;20200;-76
2024/01/22 00:03:57;;;;;;;0.90;0.90;;;;;;;-1.66;100.00;102317.69;5031938;28;20208;-74
2024/01/22 00:06:24;;;;;;;1.27;1.27;;;;;;;-1.83;100.00;102317.66;5031473;28;20219;-76
2024/01/22 00:08:52;;;;;;;1.03;1.03;;;;;;;-1.67;100.00;102300.63;5032097;28;20723;-75
2024/01/22 00:11:19;;;;;;;1.37;1.37;;;;;;;-1.74;100.00;102318.56;5031558;28;20203;-75
2024/01/22 00:13:46;;;;;;;1.00;1.00;;;;;;;-1.79;100.00;102329.94;5031047;28;20200;-75
2024/01/22 00:16:13;;;;;;;1.97;1.97;;;;;;;-1.84;100.00;102328.56;5031309;28;20231;-75
2024/01/22 00:18:39;;;;;;;1.10;1.10;;;;;;;-1.77;100.00;102328.44;5031347;28;20636;-74
2024/01/22 00:21:06;;;;;;;1.10;1.10;;;;;;;-1.65;100.00;102323.69;5031289;28;20660;-72
2024/01/22 00:23:33;;;;;;;0.90;0.90;;;;;;;-1.46;100.00;102331.50;5031392;28;20654;-75
2024/01/22 00:26:01;;;;;;;1.60;1.60;;;;;;;-1.90;100.00;102334.69;5030935;28;20262;-75
2024/01/22 00:28:28;;;;;;;0.90;0.90;;;;;;;-1.79;100.00;102329.94;5031227;28;20233;-75
2024/01/22 00:30:54;;;;;;;1.00;1.00;;;;;;;-1.59;100.00;102335.34;5031429;28;20230;-74
2024/01/22 00:33:21;;;;;;;1.80;1.73;;;;;;;-1.61;100.00;102330.88;5012422;28;20199;-75
2024/01/22 00:35:48;;;;;;;1.00;1.00;;;;;;;-1.66;100.00;102316.78;5030716;28;20232;-74
2024/01/22 00:38:15;;;;;;;1.97;1.90;;;;;;;-1.57;100.00;102320.25;5030907;28;20668;-74
2024/01/22 00:40:41;;;;;;;1.10;1.10;;;;;;;-1.55;100.00;102336.56;5031015;28;20570;-75
2024/01/22 00:43:10;;;;;;;2.17;2.03;;;;;;;-1.54;100.00;102334.19;5030853;28;20660;-74
2024/01/22 00:45:38;;;;;;;3.37;2.90;;;;;;;-1.78;100.00;102341.88;5031094;28;20211;-73
2024/01/22 00:48:07;;;;;;;1.43;1.43;;;;;;;-1.70;100.00;102335.94;5026745;28;20288;-73
2024/01/22 00:50:33;;;;;;;1.20;1.20;;;;;;;-1.77;100.00;102325.91;5010920;28;20216;-74
2024/01/22 00:53:00;;;;;;;1.00;1.00;;;;;;;-2.03;100.00;102323.28;5011384;28;20197;-75
2024/01/22 00:55:27;;;;;;;2.33;2.23;;;;;;;-1.95;100.00;102316.44;5022525;28;20227;-75
2024/01/22 00:57:54;;;;;;;3.03;1.47;;;;;;;-1.76;100.00;102332.78;5030768;28;20255;-75
2024/01/22 01:00:22;;;;;;;1.20;1.20;;;;;;;-1.72;100.00;102332.34;5030696;28;20555;-75
2024/01/22 01:02:50;;;;;;;1.13;1.13;;;;;;;-1.79;100.00;102329.94;5030843;28;20203;-75
2024/01/22 01:05:17;;;;;;;0.90;0.90;;;;;;;-2.03;100.00;102322.38;5030503;28;20228;-74
2024/01/22 01:07:44;;;;;;;1.20;1.20;;;;;;;-2.22;100.00;102317.13;5030645;28;20213;-75
2024/01/22 01:10:11;;;;;;;1.50;1.50;;;;;;;-1.99;100.00;102309.25;5030744;28;20625;-74
2024/01/22 01:12:38;;;;;;;1.10;1.10;;;;;;;-1.91;100.00;102308.38;4996151;28;20204;-75
2024/01/22 01:15:06;;;;;;;1.20;1.20;;;;;;;-1.88;100.00;102311.22;5030718;28;20200;-74
2024/01/22 01:17:34;;;;;;;1.20;1.20;;;;;;;-2.39;100.00;102237.41;5011794;28;20259;-75
2024/01/22 01:20:01;;;;;;;0.90;0.90;;;;;;;-1.95;100.00;102290.13;5030372;28;20196;-75
2024/01/22 01:22:27;;;;;;;1.03;1.03;;;;;;;-1.75;100.00;102313.34;5030494;28;20207;-76
2024/01/22 01:24:54;;;;;;;1.50;1.50;;;;;;;-1.75;100.00;102305.72;5030546;28;20215;-76
2024/01/22 01:27:21;;;;;;;0.90;0.90;;;;;;;-1.59;100.00;102307.38;5030267;28;20219;-75
2024/01/22 01:29:48;;;;;;;1.30;1.30;;;;;;;-1.59;100.00;102309.03;5030392;28;20639;-75
2024/01/22 01:32:14;;;;;;;1.10;1.10;;;;;;;-1.68;100.00;102303.03;5030443;28;20200;-75
2024/01/22 01:34:43;;;;;;;2.03;1.93;;;;;;;-1.61;100.00;102306.34;5030516;28;20223;-76
2024/01/22 01:37:10;;;;;;;1.10;1.10;;;;;;;-1.77;100.00;102318.28;5030468;28;20281;-76
2024/01/22 01:39:36;;;;;;;1.17;1.17;;;;;;;-1.63;100.00;102323.06;5030060;28;20204;-76
2024/01/22 01:42:03;;;;;;;1.23;1.23;;;;;;;-1.59;100.00;102314.09;5030265;28;20203;-75
2024/01/22 01:44:48;;;;;;;1.30;1.30;;;;;;;-1.33;100.00;102315.03;5029983;28;20199;-76
2024/01/22 01:47:15;;;;;;;1.30;1.30;;;;;;;-1.40;100.00;102312.63;5030034;28;20286;-76
2024/01/22 01:49:43;;;;;;;1.30;1.30;;;;;;;-1.48;100.00;102316.06;5011638;28;20206;-75
2024/01/22 01:52:11;;;;;;;1.20;1.20;;;;;;;-1.55;100.00;102300.94;5030158;28;20204;-75
2024/01/22 01:54:39;;;;;;;1.43;1.43;;;;;;;-1.45;100.00;102315.44;5030101;28;20196;-76
2024/01/22 01:57:07;;;;;;;1.20;1.20;;;;;;;-1.72;100.00;102299.28;5029869;28;20639;-75
2024/01/22 01:59:36;;;;;;;1.03;1.03;;;;;;;-1.45;100.00;102312.91;5029895;28;20226;-76
2024/01/22 02:02:03;;;;;;;1.40;1.40;;;;;;;-1.68;100.00;102319.19;5029676;28;20222;-75
2024/01/22 02:04:30;;;;;;;1.17;1.17;;;;;;;-1.74;100.00;102313.47;5029563;28;20325;-75
2024/01/22 02:06:58;;;;;;;1.40;1.40;;;;;;;-1.98;100.00;102303.44;5029998;28;20204;-75
2024/01/22 02:09:47;;;;;;;1.67;1.67;;;;;;;-2.00;100.00;102303.25;5029655;28;20228;-76
2024/01/22 02:12:14;;;;;;;1.00;1.00;;;;;;;-1.83;100.00;102302.41;5029603;28;20246;-75
2024/01/22 02:14:41;;;;;;;0.80;0.80;;;;;;;-1.83;100.00;102298.97;5029963;28;20221;-75
2024/01/22 02:17:07;;;;;;;2.23;1.70;;;;;;;-2.13;100.00;102245.97;5029374;28;20223;-75
2024/01/22 02:19:34;;;;;;;0.70;0.70;;;;;;;-1.74;100.00;102292.25;5030040;28;20254;-75
2024/01/22 02:22:02;;;;;;;0.90;0.90;;;;;;;-1.61;100.00;102295.28;5029458;28;20203;-74
2024/01/22 02:24:31;;;;;;;0.97;0.97;;;;;;;-1.75;100.00;102281.16;4994716;28;20224;-75
2024/01/22 02:26:57;;;;;;;1.90;1.57;;;;;;;-1.67;100.00;102295.53;5028320;28;20204;-76
2024/01/22 02:29:24;;;;;;;1.20;1.20;;;;;;;-1.51;100.00;102303.94;5029610;28;20667;-74
2024/01/22 02:31:52;;;;;;;0.93;0.93;;;;;;;-1.81;100.00;102295.81;5029294;28;20196;-74
2024/01/22 02:34:20;;;;;;;0.80;0.80;;;;;;;-1.71;100.00;102311.25;5029243;28;20196;-76
2024/01/22 02:36:46;;;;;;;2.03;1.93;;;;;;;-1.53;100.00;102307.06;5030490;28;20227;-75
2024/01/22 02:39:13;;;;;;;0.90;0.90;;;;;;;-1.41;100.00;102307.38;5033296;28;20208;-74
2024/01/22 02:41:42;;;;;;;2.87;2.77;;;;;;;-1.70;100.00;102313.03;5033376;28;20200;-74
2024/01/22 02:44:09;;;;;;;1.20;1.20;;;;;;;-1.83;100.00;102317.66;5033545;28;20208;-75
2024/01/22 02:46:35;;;;;;;1.00;1.00;;;;;;;-1.75;100.00;102318.44;5033334;28;20203;-74
2024/01/22 02:49:02;;;;;;;1.30;1.30;;;;;;;-2.18;100.00;102214.16;5033489;28;20204;-74
2024/01/22 02:51:29;;;;;;;0.87;0.87;;;;;;;-1.49;100.00;102311.72;5033356;28;20212;-75
2024/01/22 02:53:56;;;;;;;0.80;0.80;;;;;;;-1.53;100.00;102320.69;5033122;28;20211;-75
2024/01/22 02:56:24;;;;;;;1.17;1.17;;;;;;;-1.44;100.00;102319.81;5033467;28;20292;-74
2024/01/22 02:58:52;;;;;;;1.20;1.20;;;;;;;-1.61;100.00;102311.44;5032870;28;20211;-74
2024/01/22 03:01:19;;;;;;;0.97;0.97;;;;;;;-1.81;100.00;102275.50;5033046;28;20207;-75
2024/01/22 03:03:46;;;;;;;1.17;1.17;;;;;;;-1.82;100.00;102313.50;5032610;28;20208;-74
2024/01/22 03:06:13;;;;;;;1.63;1.53;;;;;;;-2.32;100.00;102308.41;5033066;28;20215;-74
2024/01/22 03:08:39;;;;;;;1.47;1.47;;;;;;;-1.90;100.00;102311.81;5032962;28;20716;-74
2024/01/22 03:11:07;;;;;;;1.20;1.20;;;;;;;-1.77;100.00;102308.09;5032404;28;20210;-74
2024/01/22 03:13:34;;;;;;;1.10;1.10;;;;;;;-1.74;100.00;102313.47;5032964;28;20222;-75
2024/01/22 03:16:02;;;;;;;0.83;0.83;;;;;;;-1.64;100.00;102316.19;5032510;28;20192;-74
2024/01/22 03:18:29;;;;;;;0.90;0.90;;;;;;;-1.91;100.00;102257.53;5031551;28;20231;-74
2024/01/22 03:20:55;;;;;;;0.93;0.93;;;;;;;-1.53;100.00;102313.06;5032128;28;20746;-74
2024/01/22 03:23:22;;;;;;;0.90;0.90;;;;;;;-2.00;100.00;102236.31;5032724;28;20663;-74
2024/01/22 03:25:49;;;;;;;1.10;1.10;;;;;;;-1.77;100.00;102297.03;5032985;28;20692;-75
2024/01/22 03:28:16;;;;;;;1.93;1.83;;;;;;;-1.72;100.00;102306.94;5032223;28;20200;-74
2024/01/22 03:30:42;;;;;;;1.30;1.30;;;;;;;-1.62;100.00;102312.16;5032854;28;20200;-75
2024/01/22 03:33:10;;;;;;;1.60;1.60;;;;;;;-1.48;100.00;102312.63;5032305;28;20200;-75
2024/01/22 03:35:37;;;;;;;1.53;1.53;;;;;;;-1.58;100.00;102321.91;5014132;28;20196;-75
2024/01/22 03:38:04;;;;;;;0.93;0.93;;;;;;;-1.45;100.00;102313.81;5031795;28;20236;-74
2024/01/22 03:40:31;;;;;;;1.07;1.07;;;;;;;-1.37;100.00;102312.03;5032374;28;21217;-75
2024/01/22 03:42:58;;;;;;;2.60;1.73;;;;;;;-1.40;100.00;102311.72;5031867;28;20231;-74
2024/01/22 03:45:25;;;;;;;1.30;1.30;;;;;;;-1.49;100.00;102319.34;5032330;28;20192;-75
2024/01/22 03:47:51;;;;;;;1.20;1.20;;;;;;;-1.54;100.00;102320.56;5029494;28;20676;-74
2024/01/22 03:50:19;;;;;;;1.20;1.20;;;;;;;-1.69;100.00;102322.47;5031664;28;20200;-73
2024/01/22 03:52:46;;;;;;;0.90;0.90;;;;;;;-2.01;100.00;102315.84;4980939;28;20586;-73
2024/01/22 03:55:13;;;;;;;1.40;1.40;;;;;;;-2.13;100.00;102296.81;5029049;28;20765;-74
2024/01/22 03:57:40;;;;;;;1.20;1.20;;;;;;;-1.86;100.00;102317.38;5031465;28;20315;-74
2024/01/22 04:00:08;;;;;;;1.30;1.30;;;;;;;-1.77;100.00;102313.19;5031677;28;20632;-75
2024/01/22 04:02:35;;;;;;;1.53;1.53;;;;;;;-1.96;100.00;102289.22;5031357;28;20200;-74
2024/01/22 04:05:02;;;;;;;2.20;2.03;;;;;;;-1.67;100.00;102315.88;5028831;28;21376;-74
2024/01/22 04:07:30;;;;;;;1.27;1.27;;;;;;;-1.47;100.00;102319.50;5031770;28;20745;-74
2024/01/22 04:09:57;;;;;;;1.10;1.10;;;;;;;-1.50;100.00;102310.81;5031898;28;20236;-74
2024/01/22 04:12:23;;;;;;;0.90;0.90;;;;;;;-1.72;100.00;102314.56;5031497;28;20204;-74
2024/01/22 04:14:50;;;;;;;2.00;2.00;;;;;;;-1.90;100.00;102320.34;5030862;28;20196;-74
2024/01/22 04:17:17;;;;;;;1.07;1.07;;;;;;;-1.95;100.00;102325.69;5031426;28;20227;-74
2024/01/22 04:19:44;;;;;;;1.33;1.33;;;;;;;-2.10;100.00;102325.97;5031356;28;20199;-74
2024/01/22 04:22:10;;;;;;;1.30;1.30;;;;;;;-2.88;100.00;102207.03;5032007;28;20196;-75
2024/01/22 04:24:39;;;;;;;1.00;1.00;;;;;;;-2.25;100.00;102293.03;4997161;28;20575;-77
2024/01/22 04:27:06;;;;;;;1.60;1.60;;;;;;;-2.01;100.00;102321.81;5031392;28;20239;-76
2024/01/22 04:29:35;;;;;;;1.10;1.10;;;;;;;-1.84;100.00;102309.88;5031266;28;20283;-73
2024/01/22 04:32:01;;;;;;;1.10;1.10;;;;;;;-2.26;100.00;102230.25;5031687;28;20283;-74
2024/01/22 04:34:28;;;;;;;1.03;1.03;;;;;;;-1.98;100.00;102308.50;5031461;28;20222;-74
2024/01/22 04:36:55;;;;;;;1.20;1.20;;;;;;;-1.81;100.00;102333.06;5031568;28;20315;-74
2024/01/22 04:39:23;;;;;;;1.20;1.20;;;;;;;-1.70;100.00;102341.00;5031440;28;20199;-75
2024/01/22 04:41:53;;;;;;;0.90;0.90;;;;;;;-1.69;100.00;102317.41;5029286;28;20192;-74
2024/01/22 04:44:19;;;;;;;1.00;1.00;;;;;;;-1.54;100.00;102318.91;5031410;28;20268;-74
2024/01/22 04:46:46;;;;;;;1.10;1.10;;;;;;;-1.31;100.00;102327.88;5030091;28;20208;-74
2024/01/22 04:49:13;;;;;;;1.10;1.10;;;;;;;-1.50;100.00;102325.19;5031290;28;20609;-73
2024/01/22 04:51:42;;;;;;;1.83;1.83;;;;;;;-1.58;100.00;102293.03;5021296;28;20196;-74
2024/01/22 04:54:09;;;;;;;1.20;1.20;;;;;;;-1.47;100.00;102337.31;4995790;28;20294;-76
2024/01/22 04:56:40;;;;;;;1.47;1.47;;;;;;;-1.35;100.00;102331.78;5030460;28;20219;-73
2024/01/22 04:59:09;;;;;;;2.10;2.10;;;;;;;-1.59;100.00;102340.44;5030613;28;20208;-73
2024/01/22 05:01:36;;;;;;;0.80;0.80;;;;;;;-1.71;100.00;102318.88;5029790;28;20204;-72
2024/01/22 05:04:02;;;;;;;1.50;1.50;;;;;;;-1.94;100.00;102308.06;5029629;28;20220;-73
2024/01/22 05:06:29;;;;;;;0.90;0.90;;;;;;;-1.77;100.00;102328.44;5029706;28;20200;-73
2024/01/22 05:08:55;;;;;;;1.07;1.07;;;;;;;-1.63;100.00;102337.44;5029745;28;20609;-73
2024/01/22 05:11:22;;;;;;;0.97;0.97;;;;;;;-1.58;100.00;102348.97;5030536;28;20211;-75
2024/01/22 05:13:50;;;;;;;1.20;1.20;;;;;;;-1.71;100.00;102346.84;5028634;28;20683;-74
2024/01/22 05:16:18;;;;;;;1.00;1.00;;;;;;;-1.47;100.00;102357.66;5030458;28;20208;-74
2024/01/22 05:18:45;;;;;;;1.33;1.33;;;;;;;-1.54;100.00;102349.44;5030629;28;20225;-74
2024/01/22 05:21:12;;;;;;;0.90;0.90;;;;;;;-1.52;100.00;102347.94;5030339;28;20195;-74
2024/01/22 05:23:40;;;;;;;1.30;1.30;;;;;;;-1.75;100.00;102285.38;5031069;28;20204;-74
2024/01/22 05:26:07;;;;;;;1.53;1.53;;;;;;;-1.35;100.00;102353.75;5032301;28;20196;-77
2024/01/22 05:28:34;;;;;;;1.40;1.40;;;;;;;-1.29;100.00;102346.75;5037136;28;20235;-77
2024/01/22 05:31:02;;;;;;;1.53;1.53;;;;;;;-1.50;100.00;102326.06;5034388;28;20530;-76
2024/01/22 05:33:30;;;;;;;1.30;1.30;;;;;;;-1.18;100.00;102343.63;5031535;28;20192;-73
2024/01/22 05:35:57;;;;;;;3.07;1.13;;;;;;;-1.29;100.00;102355.28;5030367;28;20204;-74
2024/01/22 05:38:24;;;;;;;0.90;0.90;;;;;;;-1.17;100.00;102358.13;5030406;28;20228;-74
2024/01/22 05:40:50;;;;;;;0.90;0.90;;;;;;;-1.40;100.00;102325.34;5030771;28;20227;-73
2024/01/22 05:43:17;;;;;;;1.03;1.03;;;;;;;-1.29;100.00;102349.31;5030485;28;20227;-73
2024/01/22 05:45:44;;;;;;;1.00;1.00;;;;;;;-1.36;100.00;102359.63;5030210;28;20207;-72
2024/01/22 05:48:11;;;;;;;0.80;0.80;;;;;;;-1.44;100.00;102366.50;5030051;28;20199;-73
2024/01/22 05:50:42;;;;;;;1.10;1.10;;;;;;;-1.35;100.00;102363.94;5029424;28;20207;-72
2024/01/22 05:53:09;;;;;;;1.30;1.30;;;;;;;-1.42;100.00;102359.91;5029756;28;20632;-72
2024/01/22 05:55:36;;;;;;;2.37;2.20;;;;;;;-2.33;100.00;102197.38;5027203;28;20207;-72
2024/01/22 05:58:03;;;;;;;1.20;1.20;;;;;;;-1.50;100.00;102363.34;5029806;28;20232;-70
2024/01/22 06:00:30;;;;;;;0.80;0.80;;;;;;;-1.44;100.00;102369.03;5030038;28;20211;-74
2024/01/22 06:02:59;;;;;;;1.10;1.10;;;;;;;-1.53;100.00;102366.47;5029253;28;20200;-73
2024/01/22 06:05:26;;;;;;;3.60;3.40;;;;;;;-1.69;100.00;102362.25;5029860;28;20204;-72
2024/01/22 06:07:54;;;;;;;1.27;1.27;;;;;;;-1.68;100.00;102371.69;5028957;28;20203;-70
2024/01/22 06:10:21;;;;;;;1.73;1.63;;;;;;;-1.79;100.00;102345.19;5029697;28;20211;-71
2024/01/22 06:12:47;;;;;;;1.37;1.37;;;;;;;-1.60;100.00;102371.69;5028451;28;20204;-71
2024/01/22 06:15:14;;;;;;;1.50;1.50;;;;;;;-2.11;100.00;102267.38;5029538;28;20215;-72
2024/01/22 06:17:41;;;;;;;1.63;1.63;;;;;;;-1.64;100.00;102372.13;5022572;28;20305;-68
2024/01/22 06:20:09;;;;;;;1.13;1.13;;;;;;;-1.51;100.00;102365.00;4994915;28;20207;-70
2024/01/22 06:22:35;;;;;;;1.10;1.10;;;;;;;-1.51;100.00;102359.00;5025177;28;20283;-72
2024/01/22 06:25:05;;;;;;;1.13;1.13;;;;;;;-2.20;100.00;102229.22;5029039;28;20204;-72
2024/01/22 06:27:32;;;;;;;1.20;1.20;;;;;;;-1.48;100.00;102378.75;5029425;28;20367;-74
2024/01/22 06:29:59;;;;;;;1.30;1.30;;;;;;;-1.30;100.00;102370.41;5024175;28;20637;-74
2024/01/22 06:32:26;;;;;;;1.00;1.00;;;;;;;-1.16;100.00;102375.19;5018523;28;20200;-73
2024/01/22 06:34:53;;;;;;;1.23;1.23;;;;;;;-1.11;100.00;102371.47;5028992;28;20750;-73
2024/01/22 06:37:21;;;;;;;1.00;1.00;;;;;;;-1.03;100.00;102360.34;5029342;28;20253;-74
2024/01/22 06:39:48;;;;;;;1.80;1.80;;;;;;;-0.92;100.00;102369.94;5029842;28;20200;-72
2024/01/22 06:42:16;;;;;;;4.87;3.17;;;;;;;-0.78;100.00;102367.06;5029721;28;20200;-73
2024/01/22 06:44:44;;;;;;;0.90;0.90;;;;;;;-1.03;100.00;102345.09;5029863;28;20208;-72
2024/01/22 06:47:10;;;;;;;0.90;0.90;;;;;;;-0.80;100.00;102377.88;5029409;28;20223;-74
2024/01/22 06:49:37;;;;;;;1.77;1.67;;;;;;;-0.94;100.00;102366.34;5027527;28;20204;-74
2024/01/22 06:52:05;;;;;;;1.27;1.27;;;;;;;-1.06;100.00;102342.25;5028273;28;20219;-73
2024/01/22 06:54:31;;;;;;;1.03;1.03;;;;;;;-0.76;100.00;102378.31;5029548;28;20208;-74
2024/01/22 06:56:58;;;;;;;2.50;2.30;;;;;;;-0.89;100.00;102382.97;5029550;28;20211;-74
2024/01/22 06:59:26;;;;;;;1.20;1.20;;;;;;;-1.08;100.00;102370.13;5029629;28;20236;-74
2024/01/22 07:01:53;;;;;;;2.53;2.40;;;;;;;-1.08;100.00;102364.13;5029646;28;20215;-75
2024/01/22 07:04:20;;;;;;;1.27;1.27;;;;;;;-1.05;100.00;102392.41;5029900;28;20204;-75
2024/01/22 07:06:48;;;;;;;1.10;1.10;;;;;;;-1.02;100.00;102385.06;5021415;28;20282;-72
2024/01/22 07:09:16;;;;;;;0.97;0.97;;;;;;;-1.34;100.00;102336.13;5026686;28;20239;-73
2024/01/22 07:11:43;;;;;;;0.83;0.83;;;;;;;-1.56;100.00;102281.34;5029257;28;20204;-71
2024/01/22 07:14:10;;;;;;;0.80;0.80;;;;;;;-1.33;100.00;102281.94;5029434;28;20207;-73
2024/01/22 07:16:38;;;;;;;2.23;2.13;;;;;;;-1.04;100.00;102356.03;5027371;28;20208;-73
2024/01/22 07:19:05;;;;;;;1.17;1.17;;;;;;;-1.05;100.00;102382.22;5018451;28;20588;-71
2024/01/22 07:21:33;;;;;;;1.03;1.03;;;;;;;-0.98;100.00;102359.16;5009615;28;20196;-74
2024/01/22 07:24:00;;;;;;;1.83;1.83;;;;;;;-0.86;100.00;102357.81;5032166;28;20212;-73
2024/01/22 07:26:26;;;;;;;2.10;2.00;;;;;;;-0.54;100.00;102377.09;5032843;28;20686;-76
2024/01/22 07:28:53;;;;;;;1.33;1.33;;;;;;;-0.57;100.00;102358.94;5033264;28;20212;-75
2024/01/22 07:31:20;;;;;;;1.00;1.00;;;;;;;-1.05;100.00;102285.50;5033562;28;20216;-75
2024/01/22 07:33:48;;;;;;;2.43;2.23;;;;;;;-1.27;100.00;102215.47;5026301;28;20605;-74
2024/01/22 07:36:16;;;;;;;2.53;2.40;;;;;;;-1.07;100.00;102270.06;5027373;28;20203;-75
2024/01/22 07:38:43;;;;;;;1.00;1.00;;;;;;;-1.10;100.00;102248.50;5023645;28;20723;-76
2024/01/22 07:41:10;;;;;;;2.13;2.03;;;;;;;-1.28;100.00;102246.75;5033020;28;20200;-76
2024/01/22 07:43:37;;;;;;;1.00;1.00;;;;;;;-1.62;100.00;102284.19;5032762;28;20265;-76
2024/01/22 07:46:04;;;;;;;2.47;2.27;;;;;;;-0.97;100.00;102383.88;5028035;28;20209;-75
2024/01/22 07:48:30;;;;;;;2.17;1.57;;;;;;;-1.01;100.00;102313.97;4980984;28;20909;-75
2024/01/22 07:50:59;;;;;;;2.43;2.33;;;;;;;-1.22;100.00;102216.81;5032825;28;20714;-76
2024/01/22 07:53:26;;;;;;;1.00;1.00;;;;;;;-0.97;100.00;102248.97;5032608;28;20208;-75
2024/01/22 07:55:53;;;;;;;1.87;1.87;;;;;;;-0.71;100.00;102267.56;5032794;28;20212;-74
2024/01/22 07:58:20;;;;;;;1.13;1.13;;;;;;;-0.15;100.00;102402.00;5026478;28;20612;-73
2024/01/22 08:00:46;;;;;;;1.83;1.70;;;;;;;-0.01;100.00;102371.97;5032380;28;20212;-75
2024/01/22 08:03:13;;;;;;;2.83;2.73;;;;;;;-0.05;100.00;102405.56;5032631;28;20214;-74
2024/01/22 08:05:40;;;;;;;2.33;2.17;;;;;;;0.00;100.00;102409.44;5032234;28;20207;-73
2024/01/22 08:08:09;;;;;;;7.07;6.37;;;;;;;-0.22;100.00;102381.78;5032016;28;20244;-73
2024/01/22 08:10:36;;;;;;;0.90;0.90;;;;;;;-0.40;100.00;102393.69;5032068;28;20286;-73
2024/01/22 08:13:04;;;;;;;4.03;3.77;;;;;;;-0.28;100.00;102369.34;5032468;28;20246;-73
2024/01/22 08:15:30;;;;;;;3.90;2.33;;;;;;;-0.34;100.00;102375.53;5032031;28;20281;-72
2024/01/22 08:17:57;;;;;;;1.20;1.20;;;;;;;0.01;100.00;102405.22;5030787;28;20231;-73
2024/01/22 08:20:24;;;;;;;1.23;1.23;;;;;;;0.06;100.00;102416.78;5031880;28;20200;-73
2024/01/22 08:22:51;;;;;;;0.70;0.70;;;;;;;0.00;100.00;102413.66;5031205;28;20207;-72
2024/01/22 08:25:27;;;;;;;1.03;1.03;;;;;;;0.05;100.00;102417.53;5031353;28;20200;-72
2024/01/22 08:27:53;;;;;;;4.20;1.87;;;;;;;-0.15;100.00;102413.09;5000185;28;20208;-72
2024/01/22 08:30:21;;;;;;;2.63;2.43;;;;;;;-0.07;100.00;102422.34;5018761;28;20361;-73
2024/01/22 08:32:48;;;;;;;0.80;0.80;;;;;;;-0.71;100.00;102322.72;5031204;28;20266;-72
2024/01/22 08:35:16;;;;;;;3.40;2.73;;;;;;;-0.16;100.00;102415.50;5023247;28;20258;-72
2024/01/22 08:37:45;;;;;;;1.10;1.10;;;;;;;-0.09;100.00;102425.53;5030633;28;20307;-71
2024/01/22 08:40:16;;;;;;;4.03;1.23;;;;;;;0.14;100.00;102431.16;4987702;28;20235;-72
2024/01/22 08:42:45;;;;;;;3.00;1.87;;;;;;;0.03;100.00;102406.28;5024620;28;20208;-73
2024/01/22 08:45:12;;;;;;;3.47;3.07;;;;;;;-0.05;100.00;102404.66;5031118;28;20228;-73
2024/01/22 08:47:38;;;;;;;0.90;0.90;;;;;;;0.40;100.00;102424.25;5031066;28;20200;-73
2024/01/22 08:50:06;;;;;;;4.60;2.07;;;;;;;0.37;100.00;102413.78;5030385;28;20207;-72
2024/01/22 08:52:33;;;;;;;2.60;2.40;;;;;;;0.54;100.00;102377.03;5031096;28;20214;-74
2024/01/22 08:55:00;;;;;;;2.57;2.40;;;;;;;0.65;100.00;102424.84;5022413;28;20215;-72
2024/01/22 08:57:26;;;;;;;1.70;1.67;;;;;;;0.92;100.00;102413.72;5028696;28;20192;-72
2024/01/22 08:59:54;;;;;;;2.43;2.33;;;;;;;0.55;100.00;102370.28;5030298;28;20231;-72
2024/01/22 09:02:21;;;;;;;0.93;0.93;;;;;;;0.37;100.00;102393.34;5030847;28;20208;-72
2024/01/22 09:04:48;;;;;;;4.87;4.53;;;;;;;0.26;100.00;102385.47;5027863;28;20223;-71
2024/01/22 09:07:15;;;;;;;1.47;1.47;;;;;;;0.40;100.00;102388.53;5028167;28;20215;-73
2024/01/22 09:09:42;;;;;;;2.63;2.43;;;;;;;0.83;100.00;102377.13;4996016;28;20323;-73
2024/01/22 09:12:09;;;;;;;1.50;1.50;;;;;;;0.74;100.00;102325.25;5031308;28;20621;-74
2024/01/22 09:14:36;;;;;;;2.63;1.73;;;;;;;1.29;100.00;102371.91;5031507;28;20231;-74
2024/01/22 09:17:04;;;;;;;1.00;1.00;;;;;;;1.53;100.00;102368.97;5027279;28;20211;-73
2024/01/22 09:19:32;;;;;;;0.97;0.97;;;;;;;1.53;100.00;102348.53;5031089;28;20235;-74
2024/01/22 09:21:58;;;;;;;1.70;1.70;;;;;;;1.09;100.00;102382.91;4993316;28;20200;-73
2024/01/22 09:24:25;;;;;;;1.37;1.37;;;;;;;0.85;100.00;102380.72;5025108;28;20228;-75
2024/01/22 09:26:52;;;;;;;2.03;1.97;;;;;;;1.08;100.00;102364.88;5030324;28;20215;-73
2024/01/22 09:29:19;;;;;;;1.00;1.00;;;;;;;1.31;100.00;102375.50;5030359;28;20291;-73
2024/01/22 09:31:46;;;;;;;1.40;1.40;;;;;;;1.44;100.00;102389.50;5026798;28;20212;-72
2024/01/22 09:34:14;;;;;;;5.13;4.77;;;;;;;1.10;100.00;102383.81;5030323;28;20218;-71
2024/01/22 09:36:41;;;;;;;4.07;3.80;;;;;;;1.01;100.00;102389.00;4995488;28;20208;-70
2024/01/22 09:39:08;;;;;;;2.57;2.00;;;;;;;0.93;100.00;102392.50;4979849;28;20236;-73
2024/01/22 09:41:35;;;;;;;0.90;0.90;;;;;;;0.12;100.00;102368.88;5034723;28;20676;-70
2024/01/22 09:44:03;;;;;;;0.80;0.80;;;;;;;-0.37;100.00;102393.06;5030382;28;20593;-69
2024/01/22 09:46:30;;;;;;;2.50;2.40;;;;;;;-0.65;100.00;102404.81;5029473;28;20204;-71
2024/01/22 09:48:58;;;;;;;2.17;2.07;;;;;;;-0.95;100.00;102378.94;5030311;28;20204;-70
2024/01/22 09:51:29;;;;;;;1.50;1.50;;;;;;;-1.27;100.00;102329.97;4995877;28;20231;-71
2024/01/22 09:54:05;;;;;;;1.73;1.73;;;;;;;-0.53;100.00;102399.25;5029875;28;20291;-71
2024/01/22 09:56:33;;;;;;;1.87;1.87;;;;;;;-0.51;100.00;102397.75;5025603;28;20203;-70
2024/01/22 09:59:05;;;;;;;1.23;1.23;;;;;;;-0.21;100.00;102388.66;5029802;28;20231;-72
2024/01/22 10:01:33;;;;;;;1.00;1.00;;;;;;;-0.61;100.00;102381.44;5030370;28;20298;-72
2024/01/22 10:04:00;;;;;;;2.10;2.00;;;;;;;-0.36;100.00;102402.53;5030014;28;20196;-73
2024/01/22 10:06:29;;;;;;;36.30;3.53;;;;;;;-0.72;100.00;102392.25;4995259;28;20628;-71
2024/01/22 10:08:59;;;;;;;1.73;1.63;;;;;;;-0.16;100.00;102390.91;5029980;28;20242;-73
2024/01/22 10:11:26;;;;;;;1.33;1.33;;;;;;;0.04;100.00;102369.81;5030019;28;20200;-73
2024/01/22 10:13:53;;;;;;;1.30;1.30;;;;;;;0.72;100.00;102352.28;4998954;28;20665;-73
2024/01/22 10:16:20;;;;;;;1.10;1.10;;;;;;;1.14;100.00;102365.47;5030165;28;20203;-73
2024/01/22 10:18:57;;;;;;;0.90;0.90;;;;;;;1.14;100.00;102366.31;5029917;28;20223;-72
2024/01/22 10:21:24;;;;;;;2.00;1.90;;;;;;;0.36;100.00;102269.09;5029991;28;20232;-72
2024/01/22 10:23:59;;;;;;;1.17;1.17;;;;;;;1.25;100.00;102368.19;5029745;28;20242;-73
2024/01/22 10:26:27;;;;;;;2.03;2.00;;;;;;;0.93;100.00;102359.31;5029655;28;20587;-72
2024/01/22 10:28:55;;;;;;;1.00;1.00;;;;;;;0.87;100.00;102357.13;4995656;28;20212;-72
2024/01/22 10:31:21;;;;;;;1.20;1.20;;;;;;;0.79;100.00;102346.97;5029936;28;20207;-72
2024/01/22 10:33:48;;;;;;;3.80;2.90;;;;;;;0.85;100.00;102350.09;5030045;28;20200;-72
2024/01/22 10:36:17;;;;;;;1.10;1.10;;;;;;;1.08;100.00;102347.91;5029674;28;20204;-73
2024/01/22 10:38:46;;;;;;;0.73;0.73;;;;;;;1.44;100.00;102343.50;5030034;28;20595;-73
2024/01/22 10:41:21;;;;;;;10.00;2.47;;;;;;;1.83;100.00;102340.03;5030083;28;20243;-72
2024/01/22 10:43:50;;;;;;;1.30;1.30;;;;;;;1.54;100.00;102349.38;5029965;28;20204;-72
2024/01/22 10:46:18;;;;;;;1.50;1.50;;;;;;;1.40;100.00;102355.84;4994941;28;20299;-72
2024/01/22 10:48:45;;;;;;;4.17;3.97;;;;;;;1.32;100.00;102351.75;5029599;28;20208;-72
2024/01/22 10:51:12;;;;;;;1.50;1.47;;;;;;;0.49;100.00;102353.66;4995281;28;20205;-72
2024/01/22 10:53:39;;;;;;;1.73;1.63;;;;;;;0.79;100.00;102347.88;5029484;28;20193;-72
2024/01/22 10:56:13;;;;;;;1.07;1.07;;;;;;;0.34;100.00;102346.25;5029623;28;20239;-71
2024/01/22 10:58:44;;;;;;;1.97;1.87;;;;;;;0.46;100.00;102338.03;5031779;28;20215;-68
2024/01/22 11:01:16;;;;;;;1.07;1.07;;;;;;;0.15;100.00;102338.56;5033446;28;20302;-73
2024/01/22 11:03:48;;;;;;;1.20;1.20;;;;;;;-0.27;100.00;102237.72;5033560;28;20243;-71
2024/01/22 11:06:18;;;;;;;1.10;1.10;;;;;;;0.56;100.00;102341.44;5033326;28;20239;-73
2024/01/22 11:08:49;;;;;;;1.40;1.40;;;;;;;0.78;100.00;102338.44;5033115;28;20348;-70
2024/01/22 11:11:19;;;;;;;1.93;1.93;;;;;;;0.63;100.00;102308.97;5033318;28;20289;-70
2024/01/22 11:13:51;;;;;;;0.93;0.93;;;;;;;0.83;100.00;102336.28;5033208;28;20208;-70
2024/01/22 11:16:19;;;;;;;3.83;3.53;;;;;;;0.89;100.00;102336.84;5033486;28;20200;-70
2024/01/22 11:18:58;;;;;;;1.00;1.00;;;;;;;0.95;100.00;102342.47;5033198;28;20204;-70
2024/01/22 11:21:31;;;;;;;1.90;1.90;;;;;;;0.87;100.00;102325.56;5032981;28;20196;-70